FYKT

Keetmanshoop Airport

Keetmanshoop, Namibia
TAF FYKT 251600Z 2518/2618 27015KT CAVOK BECMG 2520/2522 22007KT
Issued Valid From Valid To
Apr-25 @ 16:00 UTC
(2 hours ago)
Apr-25 @ 18:00 UTC
(in 3 minutes)
Apr-26 @ 18:00 UTC
(in 24 hours)
Apr-25 @ 18:00 to Apr-25 @ 20:00
TAF FYKT 251600Z 2518/2618 27015KT CAVOK
Wind Visibility Clouds Conditions
270° at 15 knots 10,000+ meters
  • No significant clouds
Becoming Apr-25 @ 20:00 to Apr-26 @ 18:00
BECMG 2520/2522 22007KT
Wind Visibility Clouds Conditions
220° at 7 knots 10,000+ meters
  • No significant clouds
TAF FYKT 251600Z 2518/2618 27015KT CAVOK BECMG 2520/2522 22007KT
Issued Apr-25 @ 16:00 UTC
(2 hours ago)
Valid From Apr-25 @ 18:00 UTC
(in 3 minutes)
Valid To Apr-26 @ 18:00 UTC
(in 24 hours)
Apr-25 @ 18:00 - Apr-25 @ 20:00
Wind Visibility
270° at 15 knots 10,000+ meters
Clouds
  • No significant clouds
Conditions
Becoming Apr-25 @ 20:00 - Apr-26 @ 18:00
Wind Visibility
220° at 7 knots 10,000+ meters
Clouds
  • No significant clouds
Conditions